Time;durP1;ratioP1;P1;durP2;ratioP2;P2;SDS_P1;SDS_P2;PMS_P1;PMS_P2;Temp;Humidity;BMP_temperature;BMP_pressure;BME280_temperature;BME280_humidity;BME280_pressure;Samples;Min_cycle;Max_cycle;Signal;HPM_P1;HPM_P2
2022/11/27 00:01:50;;;;;;;14.30;4.32;;;9.00;99.90;;;;;;5034200;28;20405;-75
2022/11/27 00:04:16;;;;;;;16.45;4.20;;;9.00;99.90;;;;;;5033584;28;20044;-76
2022/11/27 00:06:41;;;;;;;17.67;3.72;;;9.00;99.90;;;;;;5033581;28;20079;-77
2022/11/27 00:09:11;;;;;;;16.05;4.20;;;9.00;99.90;;;;;;5034473;28;20029;-76
2022/11/27 00:11:40;;;;;;;11.40;3.67;;;9.00;99.90;;;;;;5017828;28;20060;-75
2022/11/27 00:14:07;;;;;;;16.30;3.40;;;9.00;99.90;;;;;;5034949;28;20038;-75
2022/11/27 00:16:32;;;;;;;15.48;4.78;;;9.00;99.90;;;;;;5034594;28;20025;-76
2022/11/27 00:18:58;;;;;;;17.20;4.80;;;9.00;99.90;;;;;;5034603;28;20028;-75
2022/11/27 00:21:32;;;;;;;19.13;4.22;;;9.00;99.90;;;;;;5033635;28;20045;-76
2022/11/27 00:24:00;;;;;;;13.13;4.72;;;8.90;99.90;;;;;;5034242;28;20392;-75
2022/11/27 00:26:27;;;;;;;13.05;4.50;;;8.80;99.90;;;;;;5016693;28;20438;-75
2022/11/27 00:28:53;;;;;;;15.00;3.90;;;8.70;99.90;;;;;;5034252;28;20475;-70
2022/11/27 00:31:26;;;;;;;17.85;4.28;;;8.70;99.90;;;;;;5016386;28;20029;-70
2022/11/27 00:33:58;;;;;;;11.13;3.60;;;8.80;99.90;;;;;;5034239;28;20108;-70
2022/11/27 00:36:24;;;;;;;14.90;4.80;;;8.80;99.90;;;;;;5016719;28;20046;-71
2022/11/27 00:38:50;;;;;;;13.48;3.92;;;8.70;99.90;;;;;;5015614;28;20029;-72
2022/11/27 00:41:22;;;;;;;13.23;3.97;;;8.70;99.90;;;;;;5032941;28;20033;-72
2022/11/27 00:43:48;;;;;;;12.30;4.20;;;8.70;99.90;;;;;;5034156;28;20112;-73
2022/11/27 00:46:16;;;;;;;15.10;4.25;;;8.60;99.90;;;;;;5034553;28;20026;-72
2022/11/27 00:48:42;;;;;;;15.57;4.20;;;8.70;99.90;;;;;;5032825;28;20029;-72
2022/11/27 00:51:11;;;;;;;17.70;4.53;;;8.70;99.90;;;;;;5033644;28;20454;-72
2022/11/27 00:53:37;;;;;;;14.65;4.53;;;8.70;99.90;;;;;;5016305;28;20466;-72
2022/11/27 00:56:03;;;;;;;14.48;4.20;;;8.60;99.90;;;;;;5033693;28;20108;-72
2022/11/27 00:58:29;;;;;;;16.10;4.65;;;8.60;99.90;;;;;;5033746;28;20053;-72
2022/11/27 01:01:03;;;;;;;17.27;4.57;;;8.60;99.90;;;;;;5032355;28;20519;-72
2022/11/27 01:03:30;;;;;;;15.00;4.03;;;8.60;99.90;;;;;;5034373;28;20032;-72
2022/11/27 01:05:55;;;;;;;21.05;5.13;;;8.50;99.90;;;;;;5016053;28;20091;-72
2022/11/27 01:08:22;;;;;;;12.73;4.13;;;8.50;99.90;;;;;;5033029;28;20033;-72
2022/11/27 01:10:52;;;;;;;20.05;5.47;;;8.50;99.90;;;;;;5033628;28;20033;-72
2022/11/27 01:13:18;;;;;;;12.05;4.57;;;8.50;99.90;;;;;;5033798;28;20040;-72
2022/11/27 01:15:44;;;;;;;12.65;4.00;;;8.40;99.90;;;;;;5033723;28;20029;-73
2022/11/27 01:18:10;;;;;;;18.77;5.07;;;8.30;99.90;;;;;;5016028;28;20029;-72
2022/11/27 01:20:39;;;;;;;13.40;4.07;;;8.40;99.90;;;;;;5033016;28;20047;-72
2022/11/27 01:23:06;;;;;;;23.10;5.38;;;8.30;99.90;;;;;;5033645;28;20036;-72
2022/11/27 01:25:34;;;;;;;16.83;4.75;;;8.30;99.90;;;;;;5033599;28;20083;-72
2022/11/27 01:28:00;;;;;;;16.27;4.75;;;8.30;99.90;;;;;;5033563;28;20481;-72
2022/11/27 01:30:25;;;;;;;12.20;5.03;;;8.30;99.90;;;;;;5032537;28;20026;-72
2022/11/27 01:32:51;;;;;;;13.98;5.25;;;8.30;99.90;;;;;;5033520;28;20033;-72
2022/11/27 01:35:16;;;;;;;14.25;4.93;;;8.30;99.90;;;;;;5033546;28;20029;-72
2022/11/27 01:37:42;;;;;;;18.23;5.65;;;8.30;99.90;;;;;;5012150;28;20082;-72
2022/11/27 01:40:08;;;;;;;12.90;5.30;;;8.30;99.90;;;;;;5013686;28;20125;-72
2022/11/27 01:42:34;;;;;;;13.75;4.70;;;8.40;99.90;;;;;;5013699;28;20026;-72
2022/11/27 01:44:59;;;;;;;15.45;5.05;;;8.20;99.90;;;;;;5013427;28;20022;-72
2022/11/27 01:47:39;;;;;;;15.18;5.20;;;8.10;99.90;;;;;;5013644;28;20470;-72
2022/11/27 01:50:11;;;;;;;19.48;5.68;;;8.20;99.90;;;;;;5016806;28;20025;-72
2022/11/27 01:52:40;;;;;;;14.98;5.03;;;8.10;99.90;;;;;;5017905;28;20057;-73
2022/11/27 01:55:35;;;;;;;17.05;5.60;;;8.10;99.90;;;;;;5017761;28;20029;-72
2022/11/27 01:58:16;;;;;;;15.30;5.00;;;8.10;99.90;;;;;;5008914;28;20034;-73
2022/11/27 02:00:42;;;;;;;11.88;4.97;;;8.00;99.90;;;;;;5017684;28;20092;-72
2022/11/27 02:03:07;;;;;;;15.15;5.30;;;8.00;99.90;;;;;;5016199;28;20030;-72
2022/11/27 02:05:33;;;;;;;16.35;5.18;;;8.00;99.90;;;;;;5016163;28;20049;-72
2022/11/27 02:08:04;;;;;;;13.80;5.28;;;8.00;99.90;;;;;;5017533;28;20419;-72
2022/11/27 02:10:59;;;;;;;12.90;5.07;;;7.90;99.90;;;;;;5017166;28;20486;-72
2022/11/27 02:13:30;;;;;;;12.02;4.60;;;7.90;99.90;;;;;;5006589;28;20125;-72
2022/11/27 02:16:02;;;;;;;17.23;5.18;;;7.90;99.90;;;;;;5017458;28;20026;-72
2022/11/27 02:18:58;;;;;;;15.13;5.20;;;7.90;99.90;;;;;;5016803;28;20026;-72
2022/11/27 02:21:32;;;;;;;15.13;5.15;;;7.90;99.90;;;;;;4993899;28;20034;-72
2022/11/27 02:24:24;;;;;;;15.15;5.72;;;7.80;99.90;;;;;;5033046;28;20037;-72
2022/11/27 02:27:16;;;;;;;15.20;5.72;;;7.80;99.90;;;;;;5006344;28;20034;-72
2022/11/27 02:29:47;;;;;;;12.37;5.30;;;7.80;99.90;;;;;;5017060;28;20164;-72
2022/11/27 02:32:40;;;;;;;13.05;4.90;;;7.70;99.90;;;;;;5017184;28;20709;-72
2022/11/27 02:35:22;;;;;;;14.07;5.40;;;7.60;99.90;;;;;;5032007;28;20116;-72
2022/11/27 02:37:49;;;;;;;16.50;5.20;;;7.50;99.90;;;;;;5033565;28;20045;-72
2022/11/27 02:40:18;;;;;;;16.30;5.07;;;7.50;99.90;;;;;;5019454;28;20400;-72
2022/11/27 02:42:48;;;;;;;17.73;5.40;;;7.50;99.90;;;;;;5036369;28;20029;-72
2022/11/27 02:45:37;;;;;;;15.25;5.70;;;7.60;99.90;;;;;;5035983;28;20104;-72
2022/11/27 02:48:05;;;;;;;17.40;5.32;;;7.70;99.90;;;;;;5035704;28;20482;-72
2022/11/27 02:50:33;;;;;;;14.20;4.80;;;7.60;99.90;;;;;;5036082;28;20041;-72
2022/11/27 02:53:02;;;;;;;14.30;5.03;;;7.70;99.90;;;;;;5018983;28;20022;-72
2022/11/27 02:55:33;;;;;;;13.60;5.43;;;7.70;99.90;;;;;;5036308;28;20022;-72
2022/11/27 02:58:01;;;;;;;14.70;4.85;;;7.80;99.90;;;;;;5018730;28;20033;-72
2022/11/27 03:00:28;;;;;;;17.75;4.80;;;7.70;99.90;;;;;;5035336;28;20052;-73
2022/11/27 03:03:02;;;;;;;13.20;4.68;;;7.70;99.90;;;;;;5036073;28;20029;-72
2022/11/27 03:05:31;;;;;;;13.75;4.20;;;7.80;99.90;;;;;;5036340;28;20029;-72
2022/11/27 03:08:04;;;;;;;15.00;4.57;;;7.80;99.90;;;;;;5035886;28;20033;-72
2022/11/27 03:10:42;;;;;;;15.90;5.05;;;7.80;99.90;;;;;;5035982;28;20029;-72
2022/11/27 03:13:07;;;;;;;9.50;4.03;;;7.80;99.90;;;;;;5018080;28;20038;-72
2022/11/27 03:16:00;;;;;;;12.65;4.72;;;7.80;99.90;;;;;;5034676;28;20029;-72
2022/11/27 03:18:42;;;;;;;14.45;4.70;;;7.90;99.90;;;;;;5035570;28;20042;-72
2022/11/27 03:21:33;;;;;;;14.65;4.10;;;7.90;99.90;;;;;;5035774;28;20030;-72
2022/11/27 03:24:00;;;;;;;13.20;4.18;;;7.90;99.90;;;;;;5036053;28;20454;-72
2022/11/27 03:26:25;;;;;;;13.73;3.85;;;7.90;99.90;;;;;;5017914;28;20036;-72
2022/11/27 03:28:53;;;;;;;16.02;3.97;;;7.80;99.90;;;;;;5035775;28;20033;-73
2022/11/27 03:31:19;;;;;;;15.82;4.40;;;7.80;99.90;;;;;;5035196;28;20076;-72
2022/11/27 03:33:46;;;;;;;12.70;4.40;;;7.90;99.90;;;;;;5035791;28;20037;-73
2022/11/27 03:36:14;;;;;;;11.50;3.90;;;7.90;99.90;;;;;;5033362;28;20050;-72
2022/11/27 03:38:41;;;;;;;13.27;3.78;;;7.90;99.90;;;;;;5035540;28;20466;-72
2022/11/27 03:41:31;;;;;;;14.43;3.97;;;7.90;99.90;;;;;;5017363;28;20517;-72
2022/11/27 03:44:10;;;;;;;17.17;3.88;;;7.80;99.90;;;;;;5004661;28;20033;-72
2022/11/27 03:46:59;;;;;;;15.73;4.40;;;7.90;99.90;;;;;;5035243;28;20030;-73
2022/11/27 03:50:06;;;;;;;11.95;3.40;;;7.90;99.90;;;;;;5034051;28;20446;-72
2022/11/27 03:52:59;;;;;;;14.85;3.70;;;8.00;99.90;;;;;;5005305;28;20103;-74
2022/11/27 03:55:53;;;;;;;13.38;3.10;;;8.10;99.90;;;;;;5035388;28;20022;-73
2022/11/27 03:58:22;;;;;;;13.10;3.70;;;8.10;99.90;;;;;;5035034;28;20049;-73
2022/11/27 04:00:50;;;;;;;12.55;3.30;;;8.10;99.90;;;;;;5034811;28;20104;-73
2022/11/27 04:03:23;;;;;;;12.57;3.70;;;8.10;99.90;;;;;;5035138;28;20025;-73
2022/11/27 04:05:48;;;;;;;;;;;8.10;99.90;;;;;;5035169;28;20029;-72
2022/11/27 04:08:14;;;;;;;10.77;2.83;;;8.10;99.90;;;;;;5033541;28;19905;-73
2022/11/27 04:10:39;;;;;;;13.25;3.38;;;8.20;99.90;;;;;;5033529;28;20041;-72
2022/11/27 04:13:05;;;;;;;15.20;4.20;;;8.20;99.90;;;;;;5032471;28;20083;-72
2022/11/27 04:15:30;;;;;;;10.07;3.45;;;8.10;99.90;;;;;;5034407;28;20068;-72
2022/11/27 04:17:56;;;;;;;8.95;3.05;;;8.10;99.90;;;;;;5033338;28;20037;-72
2022/11/27 04:20:22;;;;;;;12.27;3.28;;;8.10;99.90;;;;;;5033413;28;20099;-72
2022/11/27 04:22:47;;;;;;;13.27;3.30;;;8.10;99.90;;;;;;5033845;28;20037;-73
2022/11/27 04:25:13;;;;;;;14.27;4.32;;;8.10;99.90;;;;;;5034505;28;20065;-73
2022/11/27 04:27:38;;;;;;;10.40;2.97;;;8.00;99.90;;;;;;5034174;28;20064;-72
2022/11/27 04:30:05;;;;;;;12.65;3.47;;;8.00;99.90;;;;;;5016657;28;20470;-72
2022/11/27 04:32:30;;;;;;;10.30;3.40;;;7.90;99.90;;;;;;5032853;28;20037;-72
2022/11/27 04:34:56;;;;;;;11.38;3.10;;;7.90;99.90;;;;;;5034565;28;20041;-72
2022/11/27 04:37:21;;;;;;;11.05;3.17;;;7.90;99.90;;;;;;5012604;28;20049;-72
2022/11/27 04:39:47;;;;;;;11.82;3.17;;;8.00;99.90;;;;;;5013296;28;20109;-72
2022/11/27 04:42:12;;;;;;;9.95;3.13;;;8.00;99.90;;;;;;5014175;28;20036;-72
2022/11/27 04:44:38;;;;;;;10.18;3.15;;;8.10;99.90;;;;;;5014152;28;20072;-72
2022/11/27 04:47:04;;;;;;;14.98;3.90;;;8.10;99.90;;;;;;5013105;28;20034;-72
2022/11/27 04:49:29;;;;;;;10.73;3.30;;;8.10;99.90;;;;;;5013102;28;20065;-72
2022/11/27 04:51:55;;;;;;;12.82;3.05;;;8.10;99.90;;;;;;5014358;28;20037;-72
2022/11/27 04:54:21;;;;;;;9.85;2.60;;;8.10;99.90;;;;;;5013125;28;20037;-72
2022/11/27 04:56:46;;;;;;;13.50;3.05;;;8.10;99.90;;;;;;5013916;28;20121;-72
2022/11/27 04:59:12;;;;;;;12.52;3.47;;;8.10;99.70;;;;;;5014140;28;20030;-72
2022/11/27 05:01:37;;;;;;;12.18;3.35;;;8.10;99.60;;;;;;5014109;28;20034;-73
2022/11/27 05:04:03;;;;;;;9.20;2.47;;;8.10;99.40;;;;;;5014231;28;20080;-73
2022/11/27 05:06:29;;;;;;;12.73;3.30;;;8.00;99.60;;;;;;5014199;28;20038;-72
2022/11/27 05:08:58;;;;;;;7.68;2.80;;;8.00;99.70;;;;;;5013807;28;20030;-72
2022/11/27 05:11:24;;;;;;;10.80;3.00;;;8.00;99.60;;;;;;5013701;28;20541;-72
2022/11/27 05:14:13;;;;;;;9.30;3.00;;;8.10;99.70;;;;;;5012762;28;20038;-72
2022/11/27 05:16:36;;;;;;;11.70;3.35;;;8.10;99.70;;;;;;5013925;28;20033;-72
2022/11/27 05:19:01;;;;;;;11.15;3.05;;;8.10;99.60;;;;;;5012600;28;20072;-72
2022/11/27 05:21:27;;;;;;;10.20;2.80;;;8.10;99.60;;;;;;5013064;28;20407;-72
2022/11/27 05:23:52;;;;;;;17.63;3.72;;;8.10;99.70;;;;;;5012257;28;20036;-72
2022/11/27 05:26:18;;;;;;;12.88;3.80;;;8.20;99.60;;;;;;5012262;28;20033;-72
2022/11/27 05:28:43;;;;;;;10.07;3.38;;;8.00;99.50;;;;;;5012914;28;20109;-72
2022/11/27 05:31:09;;;;;;;10.05;3.78;;;8.00;99.60;;;;;;5012883;28;20121;-72
2022/11/27 05:33:35;;;;;;;10.32;3.47;;;7.90;99.40;;;;;;5012646;28;20049;-72
2022/11/27 05:36:00;;;;;;;8.07;3.05;;;7.90;99.80;;;;;;5013608;28;20041;-72
2022/11/27 05:38:26;;;;;;;9.60;3.67;;;7.90;99.90;;;;;;5033977;28;20497;-72
2022/11/27 05:40:51;;;;;;;11.25;4.18;;;7.90;99.70;;;;;;5032599;28;20029;-72
2022/11/27 05:43:17;;;;;;;9.27;3.50;;;7.90;99.60;;;;;;5032309;28;20029;-72
2022/11/27 05:45:43;;;;;;;11.52;3.40;;;7.90;99.70;;;;;;5031988;28;20108;-72
2022/11/27 05:48:08;;;;;;;12.15;3.65;;;7.90;99.90;;;;;;5032008;28;20026;-72
2022/11/27 05:50:34;;;;;;;13.13;3.92;;;7.90;99.90;;;;;;5033347;28;20030;-72
2022/11/27 05:53:00;;;;;;;9.93;3.38;;;7.90;99.90;;;;;;5015793;28;20116;-72
2022/11/27 05:55:25;;;;;;;13.07;3.60;;;7.80;99.30;;;;;;5031850;28;20081;-71
2022/11/27 05:57:51;;;;;;;8.68;4.15;;;7.80;99.40;;;;;;5033019;28;20516;-71
2022/11/27 06:00:17;;;;;;;11.75;3.75;;;7.90;99.60;;;;;;5031986;28;20033;-72
2022/11/27 06:02:43;;;;;;;11.18;3.70;;;7.90;99.50;;;;;;5031794;28;20060;-72
2022/11/27 06:05:08;;;;;;;9.43;3.90;;;8.00;99.50;;;;;;5032347;28;20080;-72
2022/11/27 06:07:34;;;;;;;9.32;3.83;;;8.00;99.40;;;;;;5033553;28;20080;-72
2022/11/27 06:09:59;;;;;;;8.52;3.75;;;8.10;99.40;;;;;;5032079;28;20381;-72
2022/11/27 06:12:25;;;;;;;9.60;4.00;;;8.10;99.50;;;;;;5015479;28;20044;-72
2022/11/27 06:14:51;;;;;;;8.43;2.90;;;8.10;99.50;;;;;;5015418;28;20489;-72
2022/11/27 06:17:16;;;;;;;13.88;4.35;;;8.10;99.60;;;;;;5031913;28;20118;-72
2022/11/27 06:19:42;;;;;;;9.15;3.75;;;8.10;99.30;;;;;;5033093;28;20136;-72
2022/11/27 06:22:08;;;;;;;11.45;3.95;;;8.10;99.40;;;;;;5032244;28;20035;-72
2022/11/27 06:24:33;;;;;;;14.05;4.55;;;8.10;99.20;;;;;;5033325;28;20497;-72
2022/11/27 06:26:59;;;;;;;9.40;4.22;;;7.90;99.30;;;;;;5032178;28;20030;-71
2022/11/27 06:29:24;;;;;;;12.88;3.95;;;7.90;99.40;;;;;;5031680;28;20029;-72
2022/11/27 06:31:50;;;;;;;12.80;4.05;;;7.90;99.50;;;;;;5015428;28;20112;-72
2022/11/27 06:34:16;;;;;;;13.43;4.47;;;7.90;99.50;;;;;;5031553;28;20042;-72
2022/11/27 06:36:41;;;;;;;14.90;5.18;;;8.00;99.40;;;;;;5035111;28;20084;-72
2022/11/27 06:39:09;;;;;;;13.23;4.13;;;8.00;99.40;;;;;;5035549;28;20037;-72
2022/11/27 06:41:35;;;;;;;9.15;3.97;;;8.00;99.50;;;;;;5036416;28;20033;-72
2022/11/27 06:44:01;;;;;;;13.27;5.32;;;8.00;99.40;;;;;;5036664;28;20025;-72
2022/11/27 06:46:27;;;;;;;12.10;4.72;;;8.00;99.30;;;;;;5036620;28;20056;-72
2022/11/27 06:48:53;;;;;;;14.48;5.30;;;8.00;99.30;;;;;;5036636;28;20087;-72
2022/11/27 06:51:22;;;;;;;10.00;4.50;;;8.00;99.40;;;;;;5036188;28;20037;-72
2022/11/27 06:53:49;;;;;;;12.77;5.43;;;8.00;99.50;;;;;;5036378;28;20040;-72
2022/11/27 06:56:18;;;;;;;13.55;5.03;;;8.00;99.40;;;;;;5018426;28;20052;-72
2022/11/27 06:58:44;;;;;;;12.70;5.40;;;8.10;99.50;;;;;;5036050;28;20021;-73
2022/11/27 07:01:14;;;;;;;11.68;4.70;;;8.00;99.30;;;;;;5035799;28;20048;-73
2022/11/27 07:03:41;;;;;;;12.07;4.85;;;8.10;99.50;;;;;;5036007;28;20030;-72
2022/11/27 07:06:12;;;;;;;12.43;4.45;;;8.10;99.50;;;;;;5036422;28;20033;-72
2022/11/27 07:08:38;;;;;;;13.30;5.22;;;8.20;99.50;;;;;;5035926;28;20025;-72
2022/11/27 07:11:19;;;;;;;11.20;5.32;;;8.20;99.50;;;;;;5036050;28;20359;-72
2022/11/27 07:13:46;;;;;;;10.10;5.00;;;8.20;99.50;;;;;;5035892;28;20030;-71
2022/11/27 07:16:13;;;;;;;11.40;5.07;;;8.20;99.50;;;;;;5018428;28;20450;-72
2022/11/27 07:18:43;;;;;;;14.15;5.28;;;8.30;99.60;;;;;;5035457;28;20133;-72
2022/11/27 07:21:09;;;;;;;12.70;5.18;;;8.30;99.60;;;;;;5035995;28;20034;-72
2022/11/27 07:23:36;;;;;;;12.23;5.38;;;8.30;99.50;;;;;;5035755;28;20040;-72
2022/11/27 07:26:06;;;;;;;12.05;4.75;;;8.30;99.40;;;;;;5035569;28;20037;-72
2022/11/27 07:28:32;;;;;;;16.08;5.88;;;8.30;99.50;;;;;;5035505;28;20088;-72
2022/11/27 07:30:57;;;;;;;12.65;5.53;;;8.20;99.60;;;;;;5017632;28;20037;-72
2022/11/27 07:33:24;;;;;;;15.68;6.30;;;8.20;99.50;;;;;;5034052;28;20037;-72
2022/11/27 07:35:56;;;;;;;14.98;5.60;;;8.20;99.50;;;;;;5035415;28;20519;-72
2022/11/27 07:38:22;;;;;;;14.05;6.05;;;8.20;99.50;;;;;;5017464;28;20058;-71
2022/11/27 07:40:48;;;;;;;14.88;6.22;;;8.20;99.50;;;;;;5035565;28;20037;-72
2022/11/27 07:43:13;;;;;;;14.95;5.63;;;8.20;99.60;;;;;;5035265;28;20042;-72
2022/11/27 07:45:39;;;;;;;13.88;5.53;;;8.10;99.50;;;;;;5035525;28;20044;-72
2022/11/27 07:48:05;;;;;;;11.93;5.55;;;8.00;99.50;;;;;;5033720;28;20083;-71
2022/11/27 07:50:30;;;;;;;15.02;6.32;;;8.00;99.80;;;;;;5033434;28;20069;-72
2022/11/27 07:52:57;;;;;;;13.90;6.38;;;8.00;99.70;;;;;;5033977;28;20037;-72
2022/11/27 07:55:22;;;;;;;13.88;6.60;;;8.00;99.80;;;;;;5034966;28;20401;-72
2022/11/27 07:57:48;;;;;;;18.40;6.97;;;8.00;99.90;;;;;;5034668;28;20033;-72
2022/11/27 08:00:14;;;;;;;13.70;6.70;;;8.00;99.90;;;;;;5033728;28;20037;-72
2022/11/27 08:02:40;;;;;;;17.00;6.40;;;8.00;99.90;;;;;;5034439;28;20059;-72
2022/11/27 08:05:06;;;;;;;15.65;6.97;;;8.00;99.90;;;;;;5033980;28;20612;-72
2022/11/27 08:07:31;;;;;;;16.05;7.57;;;8.00;99.90;;;;;;5033487;28;20026;-72
2022/11/27 08:09:57;;;;;;;17.55;7.78;;;8.10;99.90;;;;;;5033864;28;20056;-72
2022/11/27 08:12:23;;;;;;;15.50;7.22;;;8.10;99.90;;;;;;5033340;28;20040;-72
2022/11/27 08:14:49;;;;;;;15.05;7.05;;;8.10;99.90;;;;;;5017001;28;20029;-72
2022/11/27 08:17:15;;;;;;;14.90;7.47;;;8.10;99.90;;;;;;5034317;28;20040;-72
2022/11/27 08:19:41;;;;;;;16.45;7.53;;;8.10;99.90;;;;;;5035490;28;20382;-73
2022/11/27 08:22:14;;;;;;;17.25;7.68;;;8.20;99.90;;;;;;5034757;28;20363;-73
2022/11/27 08:24:41;;;;;;;;;;;8.20;99.90;;;;;;5018370;28;20492;-73
2022/11/27 08:27:07;;;;;;;18.45;7.75;;;8.10;99.90;;;;;;5019109;28;19979;-73
2022/11/27 08:29:33;;;;;;;17.60;8.55;;;8.10;99.90;;;;;;5036373;28;20026;-73
2022/11/27 08:31:59;;;;;;;14.88;8.23;;;8.10;99.90;;;;;;5002867;28;20053;-73
2022/11/27 08:34:25;;;;;;;17.30;8.45;;;8.10;99.90;;;;;;5035886;28;20034;-72
2022/11/27 08:36:51;;;;;;;18.33;7.90;;;8.00;99.90;;;;;;5037066;28;20042;-73
2022/11/27 08:39:17;;;;;;;14.23;7.75;;;8.00;99.90;;;;;;5037499;28;20036;-73
2022/11/27 08:41:43;;;;;;;18.20;8.68;;;8.10;99.90;;;;;;5036920;28;20025;-73
2022/11/27 08:44:08;;;;;;;21.60;9.35;;;8.00;99.90;;;;;;5035484;28;20113;-73
2022/11/27 08:46:34;;;;;;;23.40;8.98;;;8.10;99.90;;;;;;5035615;28;20033;-73
2022/11/27 08:48:59;;;;;;;18.70;8.65;;;8.00;99.90;;;;;;5036087;28;20037;-73
2022/11/27 08:51:25;;;;;;;18.95;8.05;;;8.10;99.90;;;;;;5036593;28;20037;-73
2022/11/27 08:53:52;;;;;;;16.90;8.40;;;8.10;99.90;;;;;;5036328;28;20458;-74
2022/11/27 08:56:20;;;;;;;17.92;8.60;;;8.10;99.90;;;;;;5035924;28;20032;-73
2022/11/27 08:58:46;;;;;;;22.33;8.40;;;8.10;99.90;;;;;;5016428;28;20040;-73
2022/11/27 09:01:21;;;;;;;15.68;8.20;;;8.20;99.90;;;;;;5034169;28;20029;-74
2022/11/27 09:03:47;;;;;;;18.38;7.60;;;8.20;99.90;;;;;;5034181;28;20076;-74
2022/11/27 09:06:20;;;;;;;19.90;9.27;;;8.20;99.90;;;;;;5033859;28;20026;-76
2022/11/27 09:08:46;;;;;;;15.23;7.85;;;8.20;99.90;;;;;;5033415;28;20112;-77
2022/11/27 09:11:13;;;;;;;15.68;8.40;;;8.20;99.90;;;;;;5015909;28;20034;-76
2022/11/27 09:13:40;;;;;;;15.57;7.85;;;8.30;99.90;;;;;;5015893;28;20040;-77
2022/11/27 09:16:08;;;;;;;18.15;7.68;;;8.40;99.90;;;;;;5015839;28;20631;-77
2022/11/27 09:18:34;;;;;;;14.32;7.55;;;8.40;99.90;;;;;;5032173;28;20394;-77
2022/11/27 09:21:06;;;;;;;19.92;8.70;;;8.50;99.90;;;;;;5033683;28;20488;-78
2022/11/27 09:23:32;;;;;;;18.45;8.35;;;8.50;99.90;;;;;;5033697;28;20461;-76
2022/11/27 09:25:59;;;;;;;18.98;7.97;;;8.60;99.90;;;;;;5032172;28;20036;-78
2022/11/27 09:28:24;;;;;;;19.15;8.48;;;8.60;99.90;;;;;;5015496;28;20116;-78
2022/11/27 09:30:54;;;;;;;21.27;8.57;;;8.60;99.90;;;;;;5033252;28;20159;-77
2022/11/27 09:33:20;;;;;;;16.90;8.10;;;8.60;99.90;;;;;;5032147;28;20097;-77
2022/11/27 09:35:46;;;;;;;17.35;8.82;;;8.60;99.90;;;;;;5032124;28;20036;-75
2022/11/27 09:38:11;;;;;;;14.85;7.72;;;8.60;99.90;;;;;;5034034;28;20057;-75
2022/11/27 09:40:47;;;;;;;16.45;7.65;;;8.60;99.90;;;;;;5032103;28;20061;-74
2022/11/27 09:43:13;;;;;;;16.15;7.13;;;8.70;99.90;;;;;;5033627;28;20025;-73
2022/11/27 09:45:44;;;;;;;16.63;8.02;;;8.70;99.90;;;;;;5032928;28;20103;-74
2022/11/27 09:48:21;;;;;;;20.20;7.97;;;8.70;99.90;;;;;;5015524;28;20025;-74
2022/11/27 09:50:50;;;;;;;12.70;7.53;;;8.70;99.90;;;;;;5015397;28;20034;-75
2022/11/27 09:53:41;;;;;;;17.38;7.80;;;8.70;99.90;;;;;;5015343;28;20030;-75
2022/11/27 09:56:11;;;;;;;14.32;7.28;;;8.70;99.90;;;;;;5033355;28;20109;-76
2022/11/27 09:58:39;;;;;;;15.48;6.97;;;8.80;99.90;;;;;;5033200;28;20108;-76
2022/11/27 10:01:30;;;;;;;13.60;6.70;;;8.80;99.90;;;;;;5031857;28;20536;-76
2022/11/27 10:03:55;;;;;;;14.95;7.45;;;8.80;99.90;;;;;;5032749;28;20083;-75
2022/11/27 10:06:35;;;;;;;16.00;7.28;;;8.90;99.90;;;;;;5032169;28;20067;-76
2022/11/27 10:09:44;;;;;;;12.00;6.30;;;8.80;99.90;;;;;;5015397;28;20041;-76
2022/11/27 10:12:40;;;;;;;15.30;7.47;;;8.80;99.90;;;;;;5019310;28;20034;-77
2022/11/27 10:15:40;;;;;;;17.58;7.45;;;8.90;99.90;;;;;;5037063;28;20029;-75
2022/11/27 10:18:25;;;;;;;13.93;6.95;;;8.90;99.90;;;;;;5036237;28;20049;-76
2022/11/27 10:20:57;;;;;;;13.32;7.20;;;8.90;99.90;;;;;;5036770;28;20035;-75
2022/11/27 10:23:49;;;;;;;12.80;7.03;;;8.90;99.90;;;;;;5036935;28;20022;-75
2022/11/27 10:26:32;;;;;;;17.13;8.13;;;8.80;99.90;;;;;;5035589;28;20432;-75
2022/11/27 10:29:08;;;;;;;13.93;7.68;;;8.80;99.90;;;;;;5036768;28;20029;-75
2022/11/27 10:31:48;;;;;;;16.38;7.53;;;8.70;99.90;;;;;;5036512;28;20075;-77
2022/11/27 10:34:44;;;;;;;15.88;8.13;;;8.80;99.90;;;;;;5037082;28;20033;-75
2022/11/27 10:37:20;;;;;;;15.02;7.97;;;8.90;99.90;;;;;;5018242;28;20048;-75
2022/11/27 10:40:10;;;;;;;14.40;7.75;;;8.90;99.90;;;;;;5018174;28;20172;-75
2022/11/27 10:42:52;;;;;;;15.07;7.65;;;8.90;99.90;;;;;;5035620;28;20030;-78
2022/11/27 10:45:28;;;;;;;15.50;8.10;;;9.00;99.90;;;;;;5035051;28;20041;-75
2022/11/27 10:47:54;;;;;;;14.63;7.35;;;9.00;99.90;;;;;;5036039;28;20462;-76
2022/11/27 10:50:19;;;;;;;16.20;7.63;;;9.10;99.90;;;;;;5036427;28;20037;-76
2022/11/27 10:52:52;;;;;;;11.43;6.38;;;9.10;99.90;;;;;;5018651;28;20033;-76
2022/11/27 10:55:45;;;;;;;11.43;6.82;;;9.20;99.90;;;;;;5018886;28;20025;-76
2022/11/27 10:58:19;;;;;;;13.63;7.47;;;9.20;99.90;;;;;;4988432;28;20029;-76
2022/11/27 11:00:46;;;;;;;13.90;7.70;;;9.20;99.90;;;;;;5035701;28;20109;-76
2022/11/27 11:03:17;;;;;;;15.90;7.47;;;9.10;99.90;;;;;;5035078;28;20087;-76
2022/11/27 11:05:56;;;;;;;14.75;7.18;;;9.10;99.90;;;;;;5018337;28;20458;-77
2022/11/27 11:08:24;;;;;;;13.48;6.72;;;9.20;99.90;;;;;;5036100;28;20029;-76
2022/11/27 11:10:53;;;;;;;12.60;6.47;;;9.20;99.90;;;;;;5034449;28;20034;-77
2022/11/27 11:13:27;;;;;;;12.00;6.30;;;9.30;99.90;;;;;;5035657;28;20040;-74
2022/11/27 11:16:05;;;;;;;15.57;6.57;;;9.30;99.90;;;;;;5018365;28;20030;-76
2022/11/27 11:18:33;;;;;;;14.10;7.03;;;9.30;99.90;;;;;;5035573;28;20074;-76
2022/11/27 11:21:06;;;;;;;12.18;6.97;;;9.30;99.90;;;;;;5035173;28;20049;-77
2022/11/27 11:23:37;;;;;;;15.70;6.63;;;9.40;99.90;;;;;;5035384;28;20041;-77
2022/11/27 11:26:12;;;;;;;13.43;7.10;;;9.30;99.90;;;;;;5018213;28;20104;-78
2022/11/27 11:28:56;;;;;;;9.68;5.93;;;9.40;99.90;;;;;;5036086;28;20151;-79
2022/11/27 11:31:29;;;;;;;16.48;7.40;;;9.40;99.90;;;;;;5035706;28;20082;-77
2022/11/27 11:33:59;;;;;;;14.27;6.72;;;9.40;99.90;;;;;;5035502;28;20029;-77
2022/11/27 11:36:25;;;;;;;12.73;6.22;;;9.30;99.90;;;;;;5035261;28;20064;-76
2022/11/27 11:38:51;;;;;;;11.85;6.60;;;9.30;99.90;;;;;;5018006;28;20025;-75
2022/11/27 11:41:17;;;;;;;10.35;5.93;;;9.30;99.90;;;;;;5034877;28;20041;-75
2022/11/27 11:44:01;;;;;;;13.43;6.70;;;9.30;99.90;;;;;;5034846;28;20101;-77
2022/11/27 11:46:31;;;;;;;10.80;6.10;;;9.40;99.90;;;;;;5034246;28;20116;-77
2022/11/27 11:49:00;;;;;;;12.10;6.32;;;9.40;99.90;;;;;;5035048;28;20026;-78
2022/11/27 11:52:05;;;;;;;12.52;6.63;;;9.40;99.90;;;;;;5034698;28;20137;-76
2022/11/27 11:54:49;;;;;;;11.27;5.85;;;9.40;99.90;;;;;;5033672;28;20026;-77
2022/11/27 11:57:23;;;;;;;13.68;5.90;;;9.40;99.90;;;;;;5034949;28;20028;-77
2022/11/27 12:00:05;;;;;;;9.70;6.32;;;9.50;99.90;;;;;;5034503;28;20023;-78
2022/11/27 12:03:02;;;;;;;12.45;6.40;;;9.50;99.90;;;;;;5017660;28;20029;-78
2022/11/27 12:05:37;;;;;;;11.93;5.88;;;9.40;99.90;;;;;;5034234;28;20025;-77
2022/11/27 12:08:11;;;;;;;10.80;6.53;;;9.50;99.90;;;;;;5034921;28;20071;-78
2022/11/27 12:11:11;;;;;;;9.82;5.95;;;9.40;99.90;;;;;;5034590;28;20029;-78
2022/11/27 12:13:58;;;;;;;13.02;6.30;;;9.30;99.90;;;;;;5034612;28;20029;-77
2022/11/27 12:16:38;;;;;;;11.10;5.60;;;9.30;99.90;;;;;;5034531;28;20021;-77
2022/11/27 12:19:37;;;;;;;11.98;7.25;;;9.30;99.90;;;;;;5034771;28;20071;-77
2022/11/27 12:22:12;;;;;;;10.50;5.85;;;9.30;99.90;;;;;;5034014;28;20444;-77
2022/11/27 12:24:56;;;;;;;11.77;5.90;;;9.20;99.90;;;;;;5033011;28;20030;-76
2022/11/27 12:27:49;;;;;;;12.55;6.13;;;9.30;99.90;;;;;;5034493;28;20074;-77
2022/11/27 12:30:18;;;;;;;12.48;6.55;;;9.30;99.90;;;;;;5017102;28;20374;-77
2022/11/27 12:33:10;;;;;;;11.77;5.78;;;9.20;99.90;;;;;;5033677;28;20037;-76
2022/11/27 12:36:06;;;;;;;11.10;6.38;;;9.10;99.90;;;;;;5030622;28;20497;-76
2022/11/27 12:38:47;;;;;;;13.77;6.22;;;9.10;99.90;;;;;;5034397;28;20095;-77
2022/11/27 12:41:21;;;;;;;13.80;6.82;;;9.10;99.90;;;;;;5034134;28;20032;-77
2022/11/27 12:43:58;;;;;;;10.27;5.75;;;9.00;99.90;;;;;;5032641;28;20397;-77
2022/11/27 12:46:39;;;;;;;14.73;6.50;;;9.10;99.90;;;;;;5016300;28;20026;-78
2022/11/27 12:49:39;;;;;;;9.82;6.13;;;9.10;99.90;;;;;;5034374;28;20065;-77
2022/11/27 12:52:11;;;;;;;9.88;5.60;;;9.10;99.90;;;;;;5033353;28;20124;-77
2022/11/27 12:54:46;;;;;;;11.25;5.90;;;9.10;99.90;;;;;;5033680;28;20080;-76
2022/11/27 12:57:38;;;;;;;9.75;5.63;;;9.10;99.90;;;;;;5016430;28;20033;-76
2022/11/27 13:00:12;;;;;;;7.97;5.22;;;9.10;99.90;;;;;;5033808;28;20029;-77
2022/11/27 13:02:45;;;;;;;11.38;5.70;;;9.20;99.90;;;;;;5034158;28;20112;-76
2022/11/27 13:05:19;;;;;;;;;;;9.10;99.90;;;;;;5034180;28;20021;-76
2022/11/27 13:07:47;;;;;;;11.65;5.50;;;9.10;99.90;;;;;;5016860;28;19905;-77
2022/11/27 13:10:34;;;;;;;8.85;5.78;;;9.10;99.90;;;;;;5033625;28;20036;-76